Terminal Aerodrome Forecast
Issued by NWS Sterling, VA

Current Version | Previous Version | Graphics & Text | Print | Product List | Glossary On
Versions: 1 2 3 4 5 6 7 8 9 10 11 12 13 14 15 16 17
000
FTUS41 KLWX 261100
TAFMRB
TAF
KMRB 261137Z 2612/2712 02006KT 2SM -RASN OVC025
     FM261400 02006KT 1SM -SN OVC008
     FM261800 36007KT 2SM -SN OVC003
     FM262100 32007KT P6SM OVC008
     FM270100 31006KT P6SM SCT008 OVC035
     FM270600 00000KT P6SM OVC035
     FM271000 00000KT P6SM OVC030=

USA.gov is the U.S. government's official web portal to all federal, state and local government web resources and services.